createdAt,value
2023-09-09T00:01:35.849Z,23.37
2023-09-09T00:04:07.024Z,23.32
2023-09-09T00:06:37.289Z,23.29
2023-09-09T00:09:10.312Z,23.34
2023-09-09T00:11:40.803Z,23.34
2023-09-09T00:14:13.738Z,23.31
2023-09-09T00:16:43.990Z,23.31
2023-09-09T00:19:14.419Z,23.31
2023-09-09T00:21:46.468Z,23.25
2023-09-09T00:24:16.694Z,23.14
2023-09-09T00:26:46.928Z,23.09
2023-09-09T00:29:19.882Z,23.08
2023-09-09T00:31:51.426Z,23.02
2023-09-09T00:34:21.920Z,23.04
2023-09-09T00:36:55.006Z,23.00
2023-09-09T00:39:25.232Z,22.95
2023-09-09T00:41:55.556Z,22.94
2023-09-09T00:44:28.496Z,23.02
2023-09-09T00:46:59.273Z,23.05
2023-09-09T00:49:29.691Z,23.00
2023-09-09T00:52:00.377Z,22.88
2023-09-09T00:54:30.633Z,22.78
2023-09-09T00:57:02.044Z,22.68
2023-09-09T00:59:34.905Z,22.56
2023-09-09T01:02:05.650Z,22.57
2023-09-09T01:04:37.364Z,22.52
2023-09-09T01:07:08.599Z,22.57
2023-09-09T01:09:38.941Z,22.50
2023-09-09T01:12:13.407Z,22.45
2023-09-09T01:14:46.815Z,22.46
2023-09-09T01:17:17.326Z,22.49
2023-09-09T01:19:47.666Z,22.59
2023-09-09T01:22:23.042Z,22.67
2023-09-09T01:24:55.633Z,22.70
2023-09-09T01:27:25.880Z,22.57
2023-09-09T01:29:56.144Z,22.48
2023-09-09T01:32:26.455Z,22.40
2023-09-09T01:34:56.852Z,22.38
2023-09-09T01:37:29.805Z,22.44
2023-09-09T01:40:05.636Z,22.41
2023-09-09T01:42:35.932Z,22.34
2023-09-09T01:45:07.018Z,22.27
2023-09-09T01:47:37.532Z,22.18
2023-09-09T01:50:08.564Z,22.10
2023-09-09T01:52:41.476Z,21.96
2023-09-09T01:55:12.015Z,21.81
2023-09-09T01:57:45.728Z,21.74
2023-09-09T02:00:17.029Z,21.62
2023-09-09T02:02:47.576Z,21.65
2023-09-09T02:05:18.311Z,21.57
2023-09-09T02:07:51.264Z,21.56
2023-09-09T02:10:21.936Z,21.59
2023-09-09T02:12:53.745Z,21.71
2023-09-09T02:15:24.030Z,21.82
2023-09-09T02:17:55.077Z,21.85
2023-09-09T02:20:25.370Z,21.77
2023-09-09T02:22:59.599Z,21.69
2023-09-09T02:25:30.900Z,21.62
2023-09-09T02:28:01.161Z,21.52
2023-09-09T02:30:31.492Z,21.40
2023-09-09T02:33:01.891Z,21.34
2023-09-09T02:35:32.281Z,21.22
2023-09-09T02:38:05.295Z,21.16
2023-09-09T02:40:37.758Z,21.09
2023-09-09T02:43:12.340Z,21.02
2023-09-09T02:45:42.718Z,20.96
2023-09-09T02:48:13.120Z,20.94
2023-09-09T02:50:44.791Z,20.96
2023-09-09T02:53:17.749Z,20.86
2023-09-09T02:55:48.104Z,20.78
2023-09-09T02:58:18.556Z,20.74
2023-09-09T03:00:49.694Z,20.67
2023-09-09T03:03:21.946Z,20.60
2023-09-09T03:05:52.515Z,20.57
2023-09-09T03:08:25.483Z,20.58
2023-09-09T03:10:56.957Z,20.49
2023-09-09T03:13:28.889Z,20.38
2023-09-09T03:15:59.289Z,20.29
2023-09-09T03:18:30.052Z,20.24
2023-09-09T03:21:00.359Z,20.19
2023-09-09T03:23:33.188Z,20.15
2023-09-09T03:26:03.451Z,20.14
2023-09-09T03:28:33.671Z,20.09
2023-09-09T03:31:04.536Z,19.99
2023-09-09T03:33:35.046Z,19.96
2023-09-09T03:36:05.451Z,19.90
2023-09-09T03:38:38.368Z,19.86
2023-09-09T03:41:09.427Z,19.76
2023-09-09T03:43:42.287Z,19.71
2023-09-09T03:46:13.103Z,19.67
2023-09-09T03:48:43.492Z,19.62
2023-09-09T03:51:13.836Z,19.54
2023-09-09T03:53:46.950Z,19.47
2023-09-09T03:56:17.347Z,19.33
2023-09-09T03:58:47.695Z,19.38
2023-09-09T04:01:18.086Z,19.41
2023-09-09T04:03:48.817Z,19.35
2023-09-09T04:06:21.265Z,19.31
2023-09-09T04:08:57.644Z,19.21
2023-09-09T04:11:28.676Z,19.18
2023-09-09T04:14:00.954Z,19.16
2023-09-09T04:16:31.770Z,19.13
2023-09-09T04:19:02.066Z,19.13
2023-09-09T04:21:32.385Z,19.11
2023-09-09T04:24:05.313Z,19.12
2023-09-09T04:26:36.500Z,19.09
2023-09-09T04:29:06.933Z,19.06
2023-09-09T04:31:37.292Z,19.02
2023-09-09T04:34:08.293Z,18.99
2023-09-09T04:36:38.603Z,18.96
2023-09-09T04:39:14.945Z,18.95
2023-09-09T04:41:45.665Z,18.90
2023-09-09T04:44:17.113Z,18.85
2023-09-09T04:46:47.504Z,18.86
2023-09-09T04:49:18.757Z,18.79
2023-09-09T04:51:50.324Z,18.80
2023-09-09T04:54:23.168Z,18.77
2023-09-09T04:56:53.355Z,18.77
2023-09-09T04:59:23.574Z,18.78
2023-09-09T05:01:54.116Z,18.78
2023-09-09T05:04:24.450Z,18.81
2023-09-09T05:06:55.142Z,18.80
2023-09-09T05:09:28.447Z,18.77
2023-09-09T05:11:58.779Z,18.76
2023-09-09T05:14:29.135Z,18.79
2023-09-09T05:16:59.497Z,18.84
2023-09-09T05:19:29.819Z,18.92
2023-09-09T05:22:00.191Z,18.99
2023-09-09T05:24:35.195Z,19.15
2023-09-09T05:27:06.216Z,19.29
2023-09-09T05:29:37.022Z,19.48
2023-09-09T05:32:08.950Z,19.66
2023-09-09T05:34:39.499Z,19.77
2023-09-09T05:37:09.688Z,19.90
2023-09-09T05:39:42.521Z,20.00
2023-09-09T05:42:12.717Z,20.17
2023-09-09T05:44:42.964Z,20.29
2023-09-09T05:47:13.320Z,20.40
2023-09-09T05:49:43.938Z,20.49
2023-09-09T05:52:14.268Z,20.62
2023-09-09T05:54:48.776Z,20.76
2023-09-09T05:57:19.315Z,20.88
2023-09-09T05:59:50.171Z,20.98
2023-09-09T06:02:22.229Z,21.10
2023-09-09T06:04:53.183Z,21.26
2023-09-09T06:07:24.001Z,21.46
2023-09-09T06:12:27.029Z,21.81
2023-09-09T06:14:58.316Z,22.00
2023-09-09T06:17:29.779Z,22.18
2023-09-09T06:20:00.064Z,22.34
2023-09-09T06:22:30.413Z,22.54
2023-09-09T06:25:03.272Z,22.76
2023-09-09T06:27:33.599Z,23.05
2023-09-09T06:30:03.987Z,23.33
2023-09-09T06:32:34.415Z,23.51
2023-09-09T06:35:04.806Z,23.65
2023-09-09T06:37:35.205Z,23.84
2023-09-09T06:40:09.356Z,24.00
2023-09-09T06:42:39.663Z,24.20
2023-09-09T06:45:12.746Z,24.40
2023-09-09T06:47:43.104Z,24.72
2023-09-09T06:50:13.949Z,24.96
2023-09-09T06:52:46.047Z,25.10
2023-09-09T06:55:19.084Z,25.27
2023-09-09T06:57:49.790Z,25.47
2023-09-09T07:00:31.073Z,25.63
2023-09-09T07:03:01.281Z,25.78
2023-09-09T07:05:31.565Z,25.92
2023-09-09T07:08:01.853Z,26.06
2023-09-09T07:10:34.717Z,26.20
2023-09-09T07:13:04.941Z,26.32
2023-09-09T07:15:40.345Z,26.48
2023-09-09T07:18:19.203Z,26.69
2023-09-09T07:20:50.370Z,26.82
2023-09-09T07:23:23.971Z,27.02
2023-09-09T07:25:56.986Z,27.24
2023-09-09T07:28:27.347Z,27.45
2023-09-09T07:31:05.676Z,27.75
2023-09-09T07:33:36.633Z,27.97
2023-09-09T07:36:07.319Z,28.09
2023-09-09T07:38:37.602Z,28.37
2023-09-09T07:41:10.678Z,28.69
2023-09-09T07:43:41.331Z,29.08
2023-09-09T07:46:12.435Z,29.43
2023-09-09T07:48:42.620Z,29.94
2023-09-09T07:51:12.880Z,30.43
2023-09-09T07:53:43.141Z,31.01
2023-09-09T07:56:16.014Z,31.76
2023-09-09T07:58:46.279Z,32.52
2023-09-09T08:01:17.205Z,33.31
2023-09-09T08:03:47.605Z,34.18
2023-09-09T08:06:17.849Z,34.98
2023-09-09T08:08:49.079Z,35.66
2023-09-09T08:11:22.025Z,36.57
2023-09-09T08:13:52.278Z,37.33
2023-09-09T08:16:22.623Z,37.92
2023-09-09T08:18:52.998Z,38.33
2023-09-09T08:21:23.225Z,38.48
2023-09-09T08:23:53.802Z,38.66
2023-09-09T08:26:26.738Z,39.23
2023-09-09T08:28:56.848Z,39.39
2023-09-09T08:31:27.369Z,39.74
2023-09-09T08:34:00.227Z,39.88
2023-09-09T08:36:30.675Z,40.02
2023-09-09T08:39:00.939Z,40.17
2023-09-09T08:41:44.224Z,40.11
2023-09-09T08:44:19.391Z,40.33
2023-09-09T08:46:49.613Z,40.61
2023-09-09T08:49:21.779Z,40.86
2023-09-09T08:51:57.348Z,40.95
2023-09-09T08:54:27.793Z,40.25
2023-09-09T08:57:04.694Z,40.15
2023-09-09T08:59:36.148Z,40.28
2023-09-09T09:02:10.175Z,40.79
2023-09-09T09:04:42.682Z,40.67
2023-09-09T09:07:18.629Z,40.59
2023-09-09T09:09:51.574Z,40.87
2023-09-09T09:12:26.801Z,41.16
2023-09-09T09:14:57.013Z,41.28
2023-09-09T09:17:27.845Z,41.36
2023-09-09T09:19:58.071Z,41.56
2023-09-09T09:22:29.644Z,41.69
2023-09-09T09:25:05.620Z,41.76
2023-09-09T09:27:43.709Z,41.92
2023-09-09T09:30:18.198Z,42.01
2023-09-09T09:32:48.647Z,41.98
2023-09-09T09:35:26.646Z,41.90
2023-09-09T09:37:59.867Z,41.58
2023-09-09T09:40:30.897Z,41.29
2023-09-09T09:43:03.736Z,41.20
2023-09-09T09:45:34.699Z,40.75
2023-09-09T09:48:04.963Z,40.90
2023-09-09T09:50:36.293Z,41.10
2023-09-09T09:53:09.366Z,41.25
2023-09-09T09:55:40.626Z,40.92
2023-09-09T09:58:13.672Z,40.88
2023-09-09T10:00:44.380Z,40.97
2023-09-09T10:03:16.946Z,41.38
2023-09-09T10:05:49.057Z,41.54
2023-09-09T10:08:23.134Z,41.47
2023-09-09T10:10:58.184Z,41.85
2023-09-09T10:13:55.452Z,41.32
2023-09-09T10:16:27.257Z,41.60
2023-09-09T10:18:58.420Z,41.98
2023-09-09T10:21:40.347Z,41.84
2023-09-09T10:24:50.694Z,42.29
2023-09-09T10:27:21.405Z,40.98
2023-09-09T10:29:59.599Z,41.10
2023-09-09T10:32:30.613Z,41.19
2023-09-09T10:35:08.184Z,41.62
2023-09-09T10:37:47.964Z,41.67
2023-09-09T10:40:53.918Z,41.65
2023-09-09T10:46:18.743Z,41.74
2023-09-09T10:48:50.754Z,42.37
2023-09-09T10:51:21.067Z,42.67
2023-09-09T10:54:09.920Z,42.57
2023-09-09T10:56:48.999Z,43.22
2023-09-09T10:59:20.406Z,43.54
2023-09-09T11:02:12.800Z,43.94
2023-09-09T11:04:44.041Z,44.44
2023-09-09T11:07:17.626Z,44.72
2023-09-09T11:10:06.744Z,44.46
2023-09-09T11:12:38.419Z,44.44
2023-09-09T11:18:28.588Z,44.97
2023-09-09T11:21:37.034Z,45.40
2023-09-09T11:24:08.174Z,45.85
2023-09-09T11:26:57.263Z,45.57
2023-09-09T11:29:48.625Z,45.89
2023-09-09T11:32:29.405Z,45.33
2023-09-09T11:36:11.209Z,45.21
2023-09-09T11:39:04.924Z,45.67
2023-09-09T11:41:50.179Z,45.93
2023-09-09T11:44:52.683Z,46.51
2023-09-09T11:47:23.191Z,47.08
2023-09-09T11:49:53.421Z,47.56
2023-09-09T11:52:29.969Z,47.81
2023-09-09T11:55:04.922Z,47.87
2023-09-09T11:58:00.778Z,48.15
2023-09-09T12:00:31.159Z,48.32
2023-09-09T12:03:01.459Z,48.70
2023-09-09T12:05:33.662Z,48.60
2023-09-09T12:08:09.157Z,48.46
2023-09-09T12:10:40.573Z,48.06
2023-09-09T12:13:10.940Z,48.07
2023-09-09T12:15:43.752Z,48.15
2023-09-09T12:18:25.432Z,47.52
2023-09-09T12:21:05.730Z,47.76
2023-09-09T12:23:46.743Z,48.13
2023-09-09T12:26:19.227Z,48.46
2023-09-09T12:29:08.632Z,48.85
2023-09-09T12:32:03.507Z,48.76
2023-09-09T12:34:34.141Z,49.04
2023-09-09T12:37:07.785Z,49.51
2023-09-09T12:42:29.726Z,49.98
2023-09-09T12:45:00.021Z,50.20
2023-09-09T12:47:32.860Z,50.15
2023-09-09T12:50:05.584Z,50.15
2023-09-09T12:52:36.071Z,50.25
2023-09-09T12:56:12.377Z,50.31
2023-09-09T12:58:45.062Z,50.52
2023-09-09T13:01:15.459Z,50.72
2023-09-09T13:03:46.320Z,50.58
2023-09-09T13:06:16.568Z,50.73
2023-09-09T13:08:46.885Z,50.57
2023-09-09T13:11:21.862Z,50.42
2023-09-09T13:14:01.396Z,50.21
2023-09-09T13:16:39.249Z,50.20
2023-09-09T13:19:11.810Z,50.30
2023-09-09T13:21:44.795Z,50.04
2023-09-09T13:24:16.438Z,49.51
2023-09-09T13:26:49.510Z,49.41
2023-09-09T13:29:26.096Z,49.39
2023-09-09T13:31:56.939Z,49.14
2023-09-09T13:34:28.856Z,49.38
2023-09-09T13:37:01.187Z,49.48
2023-09-09T13:39:31.467Z,49.40
2023-09-09T13:42:11.365Z,49.56
2023-09-09T13:45:07.517Z,49.47
2023-09-09T13:47:34.545Z,49.46
2023-09-09T13:50:06.014Z,49.03
2023-09-09T13:52:41.865Z,49.02
2023-09-09T13:55:19.408Z,49.19
2023-09-09T13:57:52.608Z,48.95
2023-09-09T14:00:23.267Z,48.96
2023-09-09T14:02:54.787Z,49.08
2023-09-09T14:05:30.519Z,48.95
2023-09-09T14:08:03.898Z,48.11
2023-09-09T14:14:01.518Z,47.99
2023-09-09T14:16:41.599Z,48.03
2023-09-09T14:19:12.475Z,47.50
2023-09-09T14:21:47.327Z,47.42
2023-09-09T14:24:17.673Z,47.31
2023-09-09T14:26:56.090Z,47.46
2023-09-09T14:29:37.427Z,47.64
2023-09-09T14:32:09.359Z,47.62
2023-09-09T14:34:43.010Z,47.63
2023-09-09T14:37:13.427Z,47.52
2023-09-09T14:39:43.769Z,47.42
2023-09-09T14:42:14.018Z,47.45
2023-09-09T14:44:47.035Z,47.40
2023-09-09T14:47:17.519Z,47.19
2023-09-09T14:49:47.730Z,46.59
2023-09-09T14:52:17.931Z,46.23
2023-09-09T14:54:48.106Z,46.08
2023-09-09T14:57:18.233Z,46.35
2023-09-09T14:59:51.137Z,46.39
2023-09-09T15:02:21.448Z,46.59
2023-09-09T15:04:51.784Z,45.38
2023-09-09T15:07:22.321Z,45.21
2023-09-09T15:09:52.671Z,44.94
2023-09-09T15:12:22.934Z,44.47
2023-09-09T15:14:55.865Z,44.32
2023-09-09T15:17:26.246Z,44.07
2023-09-09T15:20:00.262Z,44.33
2023-09-09T15:22:30.533Z,44.01
2023-09-09T15:25:00.797Z,43.97
2023-09-09T15:27:32.002Z,43.46
2023-09-09T15:30:04.868Z,42.96
2023-09-09T15:32:35.139Z,42.57
2023-09-09T15:35:05.459Z,42.02
2023-09-09T15:37:35.660Z,42.06
2023-09-09T15:40:06.060Z,42.12
2023-09-09T15:42:38.674Z,41.84
2023-09-09T15:45:12.349Z,41.71
2023-09-09T15:47:42.591Z,41.50
2023-09-09T15:50:13.710Z,41.13
2023-09-09T15:52:43.931Z,40.55
2023-09-09T15:55:14.301Z,40.21
2023-09-09T15:57:44.572Z,39.78
2023-09-09T16:00:17.748Z,39.32
2023-09-09T16:02:48.055Z,38.65
2023-09-09T16:05:18.468Z,38.16
2023-09-09T16:07:48.673Z,37.50
2023-09-09T16:10:19.122Z,37.07
2023-09-09T16:12:49.383Z,36.48
2023-09-09T16:15:22.325Z,36.00
2023-09-09T16:17:52.576Z,35.61
2023-09-09T16:20:22.926Z,35.02
2023-09-09T16:22:53.312Z,34.48
2023-09-09T16:25:25.565Z,34.10
2023-09-09T16:27:55.806Z,33.70
2023-09-09T16:30:28.630Z,33.42
2023-09-09T16:32:58.992Z,33.16
2023-09-09T16:35:30.249Z,33.00
2023-09-09T16:38:00.736Z,32.67
2023-09-09T16:40:31.058Z,32.45
2023-09-09T16:43:01.355Z,32.30
2023-09-09T16:45:34.209Z,32.19
2023-09-09T16:48:06.376Z,32.02
2023-09-09T16:50:37.774Z,31.92
2023-09-09T16:53:08.885Z,31.86
2023-09-09T16:55:39.146Z,31.75
2023-09-09T16:58:09.411Z,31.66
2023-09-09T17:00:42.306Z,31.55
2023-09-09T17:03:12.622Z,31.39
2023-09-09T17:05:47.483Z,31.26
2023-09-09T17:08:17.736Z,31.14
2023-09-09T17:10:48.045Z,30.98
2023-09-09T17:13:18.540Z,30.85
2023-09-09T17:15:52.074Z,30.77
2023-09-09T17:18:22.374Z,30.65
2023-09-09T17:20:52.607Z,30.59
2023-09-09T17:23:22.775Z,30.52
2023-09-09T17:25:53.003Z,30.44
2023-09-09T17:28:23.336Z,30.36
2023-09-09T17:30:56.153Z,30.27
2023-09-09T17:33:26.519Z,30.20
2023-09-09T17:35:56.848Z,30.13
2023-09-09T17:38:27.261Z,29.94
2023-09-09T17:40:57.538Z,29.87
2023-09-09T17:43:27.917Z,29.80
2023-09-09T17:46:04.247Z,29.73
2023-09-09T17:48:34.545Z,29.65
2023-09-09T17:51:04.866Z,29.57
2023-09-09T17:53:35.093Z,29.49
2023-09-09T17:56:05.341Z,29.37
2023-09-09T17:58:35.979Z,29.33
2023-09-09T18:01:09.487Z,29.24
2023-09-09T18:03:41.090Z,29.17
2023-09-09T18:06:11.273Z,29.10
2023-09-09T18:08:41.527Z,29.02
2023-09-09T18:11:11.689Z,28.86
2023-09-09T18:13:41.971Z,28.81
2023-09-09T18:16:15.081Z,28.76
2023-09-09T18:18:45.317Z,28.78
2023-09-09T18:21:15.719Z,28.78
2023-09-09T18:23:45.977Z,28.70
2023-09-09T18:26:16.327Z,28.61
2023-09-09T18:28:46.640Z,28.56
2023-09-09T18:31:20.816Z,28.48
2023-09-09T18:33:51.207Z,28.41
2023-09-09T18:36:23.017Z,28.34
2023-09-09T18:38:53.390Z,28.29
2023-09-09T18:41:24.331Z,28.26
2023-09-09T18:43:54.601Z,28.22
2023-09-09T18:46:27.834Z,28.15
2023-09-09T18:48:58.234Z,28.05
2023-09-09T18:51:28.435Z,27.98
2023-09-09T18:53:58.627Z,27.88
2023-09-09T18:56:29.864Z,27.85
2023-09-09T18:59:00.237Z,27.80
2023-09-09T19:01:33.638Z,27.69
2023-09-09T19:04:04.055Z,27.62
2023-09-09T19:06:34.388Z,27.55
2023-09-09T19:09:04.637Z,27.50
2023-09-09T19:11:34.958Z,27.42
2023-09-09T19:14:05.280Z,27.24
2023-09-09T19:16:39.197Z,27.21
2023-09-09T19:19:09.558Z,27.13
2023-09-09T19:21:39.850Z,27.16
2023-09-09T19:24:10.866Z,27.03
2023-09-09T19:26:42.135Z,27.10
2023-09-09T19:29:12.550Z,27.14
2023-09-09T19:31:45.468Z,27.16
2023-09-09T19:34:15.699Z,27.17
2023-09-09T19:36:47.721Z,27.11
2023-09-09T19:39:18.159Z,27.08
2023-09-09T19:41:49.884Z,27.05
2023-09-09T19:44:20.182Z,26.94
2023-09-09T19:46:53.012Z,26.79
2023-09-09T19:49:23.344Z,26.74
2023-09-09T19:51:53.612Z,26.78
2023-09-09T19:54:23.808Z,26.68
2023-09-09T19:56:54.052Z,26.64
2023-09-09T19:59:24.480Z,26.49
2023-09-09T20:01:57.377Z,26.42
2023-09-09T20:04:27.854Z,26.20
2023-09-09T20:06:58.165Z,25.99
2023-09-09T20:09:28.425Z,26.03
2023-09-09T20:11:58.632Z,25.88
2023-09-09T20:14:29.164Z,25.90
2023-09-09T20:17:02.004Z,25.86
2023-09-09T20:19:32.380Z,25.85
2023-09-09T20:22:02.644Z,25.83
2023-09-09T20:24:33.338Z,25.83
2023-09-09T20:27:03.622Z,25.73
2023-09-09T20:29:34.539Z,25.63
2023-09-09T20:32:08.610Z,25.55
2023-09-09T20:34:39.002Z,25.50
2023-09-09T20:37:09.116Z,25.44
2023-09-09T20:39:40.091Z,25.41
2023-09-09T20:42:10.893Z,25.35
2023-09-09T20:44:41.100Z,25.35
2023-09-09T20:47:14.041Z,25.28
2023-09-09T20:49:44.406Z,25.24
2023-09-09T20:52:12.353Z,25.20
2023-09-09T20:54:42.946Z,25.14
2023-09-09T20:57:13.396Z,25.08
2023-09-09T20:59:46.660Z,25.06
2023-09-09T21:02:19.604Z,25.00
2023-09-09T21:04:50.090Z,25.00
2023-09-09T21:07:20.427Z,24.95
2023-09-09T21:09:50.628Z,24.90
2023-09-09T21:12:20.817Z,24.88
2023-09-09T21:14:54.369Z,24.84
2023-09-09T21:17:27.662Z,24.78
2023-09-09T21:19:58.862Z,24.75
2023-09-09T21:22:29.650Z,24.67
2023-09-09T21:25:00.164Z,24.60
2023-09-09T21:27:35.477Z,24.53
2023-09-09T21:30:07.095Z,24.48
2023-09-09T21:32:41.971Z,24.50
2023-09-09T21:35:30.646Z,24.49
2023-09-09T21:38:11.683Z,24.46
2023-09-09T21:40:54.047Z,24.41
2023-09-09T21:43:37.629Z,24.38
2023-09-09T21:46:15.532Z,24.30
2023-09-09T21:49:06.944Z,24.23
2023-09-09T21:52:03.368Z,24.18
2023-09-09T21:54:54.926Z,24.13
2023-09-09T21:57:25.376Z,24.10
2023-09-09T21:59:57.191Z,24.11
2023-09-09T22:02:27.832Z,24.05
2023-09-09T22:04:58.752Z,24.03
2023-09-09T22:07:29.314Z,23.96
2023-09-09T22:10:02.270Z,23.91
2023-09-09T22:12:34.134Z,23.84
2023-09-09T22:15:05.297Z,23.80
2023-09-09T22:17:37.651Z,23.74
2023-09-09T22:20:13.432Z,23.75
2023-09-09T22:22:44.374Z,23.58
2023-09-09T22:25:18.621Z,23.61
2023-09-09T22:27:49.065Z,23.49
2023-09-09T22:30:19.309Z,23.45
2023-09-09T22:32:49.960Z,23.35
2023-09-09T22:35:28.224Z,23.37
2023-09-09T22:38:00.492Z,23.27
2023-09-09T22:40:34.467Z,23.28
2023-09-09T22:43:04.961Z,23.35
2023-09-09T22:45:35.581Z,23.37
2023-09-09T22:48:06.650Z,23.41
2023-09-09T22:50:37.742Z,23.44
2023-09-09T22:53:08.394Z,23.57
2023-09-09T22:55:41.645Z,23.64
2023-09-09T22:58:12.987Z,23.63
2023-09-09T23:00:43.506Z,23.73
2023-09-09T23:03:13.763Z,23.71
2023-09-09T23:05:44.464Z,23.72
2023-09-09T23:08:15.090Z,23.81
2023-09-09T23:10:48.276Z,23.83
2023-09-09T23:13:18.781Z,23.85
2023-09-09T23:15:49.713Z,23.86
2023-09-09T23:18:20.269Z,23.81
2023-09-09T23:20:50.504Z,23.76
2023-09-09T23:23:21.166Z,23.68
2023-09-09T23:25:59.974Z,23.56
2023-09-09T23:28:30.775Z,23.50
2023-09-09T23:31:02.451Z,23.44
2023-09-09T23:33:35.252Z,23.41
2023-09-09T23:36:06.948Z,23.32
2023-09-09T23:38:37.847Z,23.26
2023-09-09T23:41:12.294Z,23.21
2023-09-09T23:43:42.953Z,23.19
2023-09-09T23:46:14.098Z,23.16
2023-09-09T23:48:44.614Z,23.07
2023-09-09T23:51:15.011Z,22.97
2023-09-09T23:53:45.541Z,22.92
2023-09-09T23:56:18.344Z,22.85
2023-09-09T23:58:49.673Z,22.79
